Time,TemperatureF,DewpointF,PressureIn,WindDirection,WindDirectionDegrees,WindSpeedMPH,WindSpeedGustMPH,Humidity,HourlyPrecipIn,Conditions,Clouds,dailyrainin,SoftwareType,DateUTC
2013-01-06 00:00:00,45.1,43.8,30.17,NE,36,0.0,6.0,95,0.03,,---,0.12,VWS V14.01,2013-01-06 06:00:00,
2013-01-06 00:01:00,45.1,43.8,30.17,NE,36,0.0,0.0,95,0.03,,---,0.00,VWS V14.01,2013-01-06 06:01:00,
2013-01-06 00:06:00,44.9,43.6,30.17,NE,45,3.0,5.0,95,0.04,,---,0.01,VWS V14.01,2013-01-06 06:06:00,
2013-01-06 00:11:00,44.9,43.6,30.17,NNE,26,4.0,7.0,95,0.05,,---,0.02,VWS V14.01,2013-01-06 06:11:00,
2013-01-06 00:15:00,44.8,43.5,30.17,NE,41,5.0,7.0,95,0.06,,---,0.03,VWS V14.01,2013-01-06 06:15:00,
2013-01-06 00:17:00,44.8,43.5,30.17,NNE,24,2.0,6.0,95,0.06,,---,0.03,VWS V14.01,2013-01-06 06:17:00,
2013-01-06 00:22:00,44.8,43.5,30.17,NNE,12,3.0,6.0,95,0.08,,---,0.05,VWS V14.01,2013-01-06 06:22:00,
2013-01-06 00:27:00,44.8,43.5,30.17,North,5,4.0,6.0,95,0.09,,---,0.06,VWS V14.01,2013-01-06 06:27:00,
2013-01-06 00:30:00,44.8,43.5,30.17,NNE,17,3.0,6.0,95,0.10,,---,0.07,VWS V14.01,2013-01-06 06:30:00,
2013-01-06 00:32:00,44.8,43.5,30.17,ENE,60,3.0,5.0,95,0.11,,---,0.08,VWS V14.01,2013-01-06 06:32:00,
2013-01-06 00:37:00,44.6,43.5,30.17,NE,50,1.0,5.0,96,0.13,,---,0.10,VWS V14.01,2013-01-06 06:37:00,
2013-01-06 00:42:00,44.6,43.5,30.17,NNE,24,4.0,5.0,96,0.15,,---,0.12,VWS V14.01,2013-01-06 06:42:00,
2013-01-06 00:45:00,44.6,43.5,30.16,ENE,78,2.0,5.0,96,0.16,,---,0.13,VWS V14.01,2013-01-06 06:45:00,
2013-01-06 00:47:00,44.6,43.5,30.16,NNE,29,3.0,7.0,96,0.17,,---,0.14,VWS V14.01,2013-01-06 06:47:00,
2013-01-06 00:52:00,44.6,43.5,30.16,NNE,22,2.0,7.0,96,0.18,,---,0.15,VWS V14.01,2013-01-06 06:52:00,
2013-01-06 00:57:00,44.6,43.5,30.16,NE,34,3.0,7.0,96,0.19,,---,0.16,VWS V14.01,2013-01-06 06:57:00,
2013-01-06 01:00:00,44.6,43.5,30.16,NE,38,3.0,7.0,96,0.19,,---,0.16,VWS V14.01,2013-01-06 07:00:00,
2013-01-06 01:02:00,44.6,43.5,30.16,NNE,16,2.0,6.0,96,0.16,,---,0.16,VWS V14.01,2013-01-06 07:02:00,
2013-01-06 01:07:00,44.6,43.5,30.16,NNE,23,0.0,6.0,96,0.16,,---,0.16,VWS V14.01,2013-01-06 07:07:00,
2013-01-06 01:12:00,44.8,43.7,30.16,NE,45,0.0,6.0,96,0.16,,---,0.16,VWS V14.01,2013-01-06 07:12:00,
2013-01-06 01:15:00,44.8,43.7,30.16,ENE,65,0.0,6.0,96,0.16,,---,0.16,VWS V14.01,2013-01-06 07:15:00,
2013-01-06 01:18:00,44.8,43.7,30.16,ENE,59,1.0,4.0,96,0.14,,---,0.17,VWS V14.01,2013-01-06 07:18:00,
2013-01-06 01:23:00,44.8,43.7,30.16,NNE,29,3.0,4.0,96,0.14,,---,0.17,VWS V14.01,2013-01-06 07:23:00,
2013-01-06 01:28:00,44.8,43.7,30.16,NE,49,0.0,5.0,96,0.14,,---,0.17,VWS V14.01,2013-01-06 07:28:00,
2013-01-06 01:30:00,44.8,43.7,30.16,NE,49,0.0,5.0,96,0.15,,---,0.18,VWS V14.01,2013-01-06 07:30:00,
2013-01-06 01:33:00,44.8,43.7,30.16,NE,46,0.0,0.0,96,0.11,,---,0.18,VWS V14.01,2013-01-06 07:33:00,
2013-01-06 01:38:00,44.8,43.7,30.16,East,86,0.0,0.0,96,0.11,,---,0.18,VWS V14.01,2013-01-06 07:38:00,
2013-01-06 01:43:00,44.8,43.7,30.16,East,86,0.0,0.0,96,0.11,,---,0.18,VWS V14.01,2013-01-06 07:43:00,
2013-01-06 01:45:00,44.8,43.7,30.16,NNE,33,4.0,4.0,96,0.11,,---,0.18,VWS V14.01,2013-01-06 07:45:00,
2013-01-06 01:48:00,44.8,43.7,30.16,North,5,4.0,5.0,96,0.06,,---,0.19,VWS V14.01,2013-01-06 07:48:00,
2013-01-06 01:53:00,44.9,43.8,30.16,ENE,77,3.0,5.0,96,0.07,,---,0.20,VWS V14.01,2013-01-06 07:53:00,
2013-01-06 01:58:00,44.9,43.8,30.16,NE,46,3.0,5.0,96,0.07,,---,0.20,VWS V14.01,2013-01-06 07:58:00,
2013-01-06 02:00:00,44.9,43.8,30.15,NE,40,2.0,5.0,96,0.08,,---,0.21,VWS V14.01,2013-01-06 08:00:00,
2013-01-06 02:03:00,44.9,43.8,30.15,NE,54,3.0,8.0,96,0.06,,---,0.22,VWS V14.01,2013-01-06 08:03:00,
2013-01-06 02:08:00,44.8,43.7,30.15,NNE,14,0.0,8.0,96,0.07,,---,0.23,VWS V14.01,2013-01-06 08:08:00,
2013-01-06 02:13:00,44.8,43.7,30.15,NNE,31,5.0,8.0,96,0.08,,---,0.24,VWS V14.01,2013-01-06 08:13:00,
2013-01-06 02:15:00,44.8,43.7,30.16,NNE,15,5.0,8.0,96,0.08,,---,0.24,VWS V14.01,2013-01-06 08:15:00,
2013-01-06 02:18:00,44.8,43.7,30.16,North,10,3.0,6.0,96,0.08,,---,0.24,VWS V14.01,2013-01-06 08:18:00,
2013-01-06 02:24:00,44.8,44.0,30.16,North,355,3.0,6.0,97,0.09,,---,0.25,VWS V14.01,2013-01-06 08:24:00,
2013-01-06 02:29:00,44.8,44.0,30.16,North,355,5.0,11.0,97,0.11,,---,0.27,VWS V14.01,2013-01-06 08:29:00,
2013-01-06 02:30:00,44.8,44.0,30.16,NNW,344,5.0,11.0,97,0.11,,---,0.27,VWS V14.01,2013-01-06 08:30:00,
2013-01-06 02:34:00,44.6,43.8,30.16,ENE,61,6.0,6.0,97,0.11,,---,0.29,VWS V14.01,2013-01-06 08:34:00,
2013-01-06 02:39:00,44.6,43.8,30.16,NNE,22,3.0,10.0,97,0.14,,---,0.32,VWS V14.01,2013-01-06 08:39:00,
2013-01-06 02:44:00,44.5,43.7,30.16,NE,40,4.0,10.0,97,0.20,,---,0.38,VWS V14.01,2013-01-06 08:44:00,
2013-01-06 02:45:00,44.5,43.7,30.16,NNE,24,5.0,10.0,97,0.21,,---,0.39,VWS V14.01,2013-01-06 08:45:00,
2013-01-06 02:49:00,44.5,43.7,30.16,NE,35,4.0,6.0,97,0.28,,---,0.46,VWS V14.01,2013-01-06 08:49:00,
2013-01-06 02:54:00,44.5,43.7,30.16,North,355,4.0,10.0,97,0.32,,---,0.50,VWS V14.01,2013-01-06 08:54:00,
2013-01-06 02:59:00,44.5,43.7,30.16,NE,37,6.0,11.0,97,0.36,,---,0.54,VWS V14.01,2013-01-06 08:59:00,
2013-01-06 03:00:00,44.5,43.7,30.16,NNE,19,8.0,11.0,97,0.37,,---,0.55,VWS V14.01,2013-01-06 09:00:00,
2013-01-06 03:04:00,44.5,43.7,30.16,NE,44,8.0,11.0,97,0.36,,---,0.57,VWS V14.01,2013-01-06 09:04:00,
2013-01-06 03:09:00,44.5,43.7,30.16,NE,34,5.0,11.0,97,0.39,,---,0.60,VWS V14.01,2013-01-06 09:09:00,
2013-01-06 03:14:00,44.5,43.7,30.15,ENE,63,12.0,13.0,97,0.38,,---,0.62,VWS V14.01,2013-01-06 09:14:00,
2013-01-06 03:15:00,44.5,43.7,30.15,NE,38,11.0,12.0,97,0.41,,---,0.62,VWS V14.01,2013-01-06 09:15:00,
2013-01-06 03:20:00,44.5,43.7,30.15,North,360,4.0,13.0,97,0.40,,---,0.64,VWS V14.01,2013-01-06 09:20:00,
2013-01-06 03:25:00,44.5,43.7,30.15,NE,36,6.0,13.0,97,0.41,,---,0.65,VWS V14.01,2013-01-06 09:25:00,
2013-01-06 03:30:00,44.5,43.7,30.14,NE,42,10.0,10.0,97,0.40,,---,0.67,VWS V14.01,2013-01-06 09:30:00,
2013-01-06 03:35:00,44.5,43.7,30.14,NNE,22,5.0,12.0,97,0.41,,---,0.68,VWS V14.01,2013-01-06 09:35:00,
2013-01-06 03:40:00,44.3,43.8,30.14,NNE,27,2.0,13.0,98,0.42,,---,0.69,VWS V14.01,2013-01-06 09:40:00,
2013-01-06 03:45:00,44.3,43.8,30.15,NNE,16,6.0,11.0,98,0.32,,---,0.71,VWS V14.01,2013-01-06 09:45:00,
2013-01-06 03:50:00,44.3,43.5,30.15,North,5,5.0,15.0,97,0.33,,---,0.72,VWS V14.01,2013-01-06 09:50:00,
2013-01-06 03:55:00,44.3,43.8,30.15,North,11,6.0,15.0,98,0.34,,---,0.73,VWS V14.01,2013-01-06 09:55:00,
2013-01-06 04:00:00,44.3,43.8,30.15,North,5,5.0,10.0,98,0.19,,---,0.74,VWS V14.01,2013-01-06 10:00:00,
2013-01-06 04:05:00,44.2,43.7,30.15,NE,46,8.0,10.0,98,0.20,,---,0.75,VWS V14.01,2013-01-06 10:05:00,
2013-01-06 04:10:00,44.2,43.7,30.15,North,350,6.0,16.0,98,0.21,,---,0.76,VWS V14.01,2013-01-06 10:10:00,
2013-01-06 04:15:00,44.2,43.7,30.15,NNE,33,6.0,10.0,98,0.15,,---,0.77,VWS V14.01,2013-01-06 10:15:00,
2013-01-06 04:20:00,44.2,43.7,30.15,North,9,7.0,14.0,98,0.16,,---,0.78,VWS V14.01,2013-01-06 10:20:00,
2013-01-06 04:25:00,44.1,43.6,30.15,NE,34,4.0,14.0,98,0.17,,---,0.79,VWS V14.01,2013-01-06 10:25:00,
2013-01-06 04:30:00,44.1,43.6,30.16,North,11,5.0,7.0,98,0.12,,---,0.79,VWS V14.01,2013-01-06 10:30:00,
2013-01-06 04:35:00,44.1,43.6,30.16,NE,55,5.0,10.0,98,0.12,,---,0.79,VWS V14.01,2013-01-06 10:35:00,
2013-01-06 04:40:00,44.1,43.6,30.16,North,360,7.0,15.0,98,0.12,,---,0.79,VWS V14.01,2013-01-06 10:40:00,
2013-01-06 04:45:00,43.9,43.4,30.16,NNE,16,6.0,19.0,98,0.09,,---,0.80,VWS V14.01,2013-01-06 10:45:00,
2013-01-06 04:50:00,43.9,43.4,30.16,NNE,31,10.0,19.0,98,0.10,,---,0.81,VWS V14.01,2013-01-06 10:50:00,
2013-01-06 04:56:00,43.9,43.4,30.16,NNW,341,10.0,19.0,98,0.11,,---,0.82,VWS V14.01,2013-01-06 10:56:00,
2013-01-06 05:00:00,43.9,43.4,30.16,NNE,24,5.0,6.0,98,0.08,,---,0.82,VWS V14.01,2013-01-06 11:00:00,
2013-01-06 05:06:00,43.9,43.4,30.16,NNE,23,11.0,15.0,98,0.08,,---,0.82,VWS V14.01,2013-01-06 11:06:00,
2013-01-06 05:11:00,43.8,43.3,30.16,NNE,14,11.0,15.0,98,0.08,,---,0.82,VWS V14.01,2013-01-06 11:11:00,
2013-01-06 05:15:00,43.8,43.3,30.17,NNE,30,10.0,15.0,98,0.08,,---,0.82,VWS V14.01,2013-01-06 11:15:00,
2013-01-06 05:16:00,43.8,43.3,30.17,NNE,17,4.0,10.0,98,0.05,,---,0.82,VWS V14.01,2013-01-06 11:16:00,
2013-01-06 05:21:00,43.8,43.3,30.17,NE,37,11.0,15.0,98,0.06,,---,0.83,VWS V14.01,2013-01-06 11:21:00,
2013-01-06 05:26:00,43.8,43.3,30.17,NE,53,13.0,17.0,98,0.07,,---,0.84,VWS V14.01,2013-01-06 11:26:00,
2013-01-06 05:30:00,43.6,43.1,30.16,NNE,24,10.0,17.0,98,0.07,,---,0.84,VWS V14.01,2013-01-06 11:30:00,
2013-01-06 05:31:00,43.8,43.3,30.16,NE,56,4.0,10.0,98,0.06,,---,0.85,VWS V14.01,2013-01-06 11:31:00,
2013-01-06 05:36:00,43.8,43.3,30.16,NE,44,6.0,10.0,98,0.06,,---,0.85,VWS V14.01,2013-01-06 11:36:00,
2013-01-06 05:41:00,43.8,43.3,30.16,ENE,67,3.0,11.0,98,0.06,,---,0.85,VWS V14.01,2013-01-06 11:41:00,
2013-01-06 05:45:00,43.8,43.3,30.17,NNE,30,4.0,11.0,98,0.07,,---,0.86,VWS V14.01,2013-01-06 11:45:00,
2013-01-06 05:46:00,43.8,43.3,30.17,NNE,22,5.0,9.0,98,0.06,,---,0.86,VWS V14.01,2013-01-06 11:46:00,
2013-01-06 05:51:00,43.9,43.4,30.17,NE,47,7.0,10.0,98,0.06,,---,0.86,VWS V14.01,2013-01-06 11:51:00,
2013-01-06 05:56:00,43.9,43.4,30.17,ENE,65,7.0,13.0,98,0.06,,---,0.86,VWS V14.01,2013-01-06 11:56:00,
2013-01-06 06:00:00,43.9,43.4,30.17,NE,35,8.0,13.0,98,0.06,,---,0.86,VWS V14.01,2013-01-06 12:00:00,
2013-01-06 06:01:00,43.9,43.4,30.17,NE,40,16.0,16.0,98,0.04,,---,0.86,VWS V14.01,2013-01-06 12:01:00,
2013-01-06 06:06:00,43.9,43.4,30.17,North,11,5.0,16.0,98,0.04,,---,0.86,VWS V14.01,2013-01-06 12:06:00,
2013-01-06 06:11:00,43.9,43.4,30.17,NNE,17,5.0,16.0,98,0.04,,---,0.86,VWS V14.01,2013-01-06 12:11:00,
2013-01-06 06:15:00,44.1,43.6,30.18,North,5,4.0,16.0,98,0.04,,---,0.86,VWS V14.01,2013-01-06 12:15:00,
2013-01-06 06:17:00,44.1,43.6,30.18,NE,46,5.0,14.0,98,0.05,,---,0.87,VWS V14.01,2013-01-06 12:17:00,
2013-01-06 06:22:00,44.1,43.6,30.18,NE,50,3.0,14.0,98,0.05,,---,0.87,VWS V14.01,2013-01-06 12:22:00,
2013-01-06 06:27:00,44.1,43.6,30.18,ENE,70,0.0,14.0,98,0.05,,---,0.87,VWS V14.01,2013-01-06 12:27:00,
2013-01-06 06:30:00,43.9,43.4,30.19,NE,38,2.0,14.0,98,0.05,,---,0.87,VWS V14.01,2013-01-06 12:30:00,
2013-01-06 06:32:00,43.9,43.4,30.19,NNE,21,2.0,9.0,98,0.03,,---,0.87,VWS V14.01,2013-01-06 12:32:00,
2013-01-06 06:37:00,44.1,43.6,30.19,NNE,26,6.0,9.0,98,0.03,,---,0.87,VWS V14.01,2013-01-06 12:37:00,
2013-01-06 06:42:00,44.1,43.6,30.19,ENE,58,5.0,9.0,98,0.03,,---,0.87,VWS V14.01,2013-01-06 12:42:00,
2013-01-06 06:45:00,44.1,43.6,30.20,NNE,20,7.0,9.0,98,0.03,,---,0.87,VWS V14.01,2013-01-06 12:45:00,
2013-01-06 06:47:00,43.9,43.4,30.20,NNE,28,4.0,7.0,98,0.01,,---,0.87,VWS V14.01,2013-01-06 12:47:00,
2013-01-06 06:52:00,43.9,43.4,30.20,NNE,28,9.0,11.0,98,0.01,,---,0.87,VWS V14.01,2013-01-06 12:52:00,
2013-01-06 06:57:00,43.9,43.4,30.20,NNE,29,3.0,11.0,98,0.01,,---,0.87,VWS V14.01,2013-01-06 12:57:00,
2013-01-06 07:00:00,44.1,43.6,30.21,NNE,21,4.0,11.0,98,0.01,,---,0.87,VWS V14.01,2013-01-06 13:00:00,
2013-01-06 07:02:00,44.1,43.6,30.21,NE,34,2.0,7.0,98,0.01,,---,0.87,VWS V14.01,2013-01-06 13:02:00,
2013-01-06 07:07:00,44.1,43.6,30.21,NNE,30,0.0,7.0,98,0.02,,---,0.88,VWS V14.01,2013-01-06 13:07:00,
2013-01-06 07:13:00,43.9,43.4,30.21,ENE,71,0.0,7.0,98,0.02,,---,0.88,VWS V14.01,2013-01-06 13:13:00,
2013-01-06 07:15:00,43.9,43.4,30.20,NE,34,4.0,7.0,98,0.02,,---,0.88,VWS V14.01,2013-01-06 13:15:00,
2013-01-06 07:18:00,43.9,43.4,30.20,ENE,60,4.0,7.0,98,0.02,,---,0.88,VWS V14.01,2013-01-06 13:18:00,
2013-01-06 07:23:00,43.9,43.4,30.20,NE,36,5.0,9.0,98,0.02,,---,0.88,VWS V14.01,2013-01-06 13:23:00,
2013-01-06 07:28:00,43.9,43.4,30.20,NE,47,5.0,10.0,98,0.02,,---,0.88,VWS V14.01,2013-01-06 13:28:00,
2013-01-06 07:30:00,43.9,43.4,30.20,NNE,30,3.0,10.0,98,0.02,,---,0.88,VWS V14.01,2013-01-06 13:30:00,
2013-01-06 07:33:00,43.9,43.4,30.20,North,5,2.0,7.0,98,0.02,,---,0.89,VWS V14.01,2013-01-06 13:33:00,
2013-01-06 07:38:00,43.9,43.4,30.20,NNE,32,6.0,7.0,98,0.02,,---,0.89,VWS V14.01,2013-01-06 13:38:00,
2013-01-06 07:43:00,43.9,43.4,30.20,NNE,17,5.0,9.0,98,0.02,,---,0.89,VWS V14.01,2013-01-06 13:43:00,
2013-01-06 07:45:00,43.9,43.4,30.21,North,360,6.0,10.0,98,0.02,,---,0.89,VWS V14.01,2013-01-06 13:45:00,
2013-01-06 07:48:00,43.9,43.4,30.21,NNE,24,9.0,13.0,98,0.02,,---,0.89,VWS V14.01,2013-01-06 13:48:00,
2013-01-06 07:53:00,43.9,43.4,30.21,NNE,32,6.0,13.0,98,0.02,,---,0.89,VWS V14.01,2013-01-06 13:53:00,
2013-01-06 07:58:00,43.9,43.4,30.21,NNE,17,5.0,13.0,98,0.02,,---,0.89,VWS V14.01,2013-01-06 13:58:00,
2013-01-06 08:00:00,43.9,43.4,30.22,NNE,27,11.0,13.0,98,0.02,,---,0.89,VWS V14.01,2013-01-06 14:00:00,
2013-01-06 08:03:00,43.9,43.4,30.22,NNE,17,4.0,11.0,98,0.02,,---,0.89,VWS V14.01,2013-01-06 14:03:00,
2013-01-06 08:08:00,44.1,43.6,30.22,NNE,30,1.0,11.0,98,0.02,,---,0.89,VWS V14.01,2013-01-06 14:08:00,
2013-01-06 08:13:00,44.1,43.6,30.22,NNE,30,4.0,11.0,98,0.03,,---,0.90,VWS V14.01,2013-01-06 14:13:00,
2013-01-06 08:15:00,44.1,43.6,30.22,NE,38,5.0,11.0,98,0.03,,---,0.90,VWS V14.01,2013-01-06 14:15:00,
2013-01-06 08:18:00,44.1,43.6,30.22,NNE,32,6.0,7.0,98,0.02,,---,0.90,VWS V14.01,2013-01-06 14:18:00,
2013-01-06 08:23:00,44.1,43.6,30.22,ENE,57,6.0,9.0,98,0.02,,---,0.90,VWS V14.01,2013-01-06 14:23:00,
2013-01-06 08:29:00,44.1,43.6,30.23,NE,35,4.0,9.0,98,0.02,,---,0.90,VWS V14.01,2013-01-06 14:29:00,
2013-01-06 08:30:00,44.2,43.7,30.23,NNE,23,4.0,9.0,98,0.02,,---,0.90,VWS V14.01,2013-01-06 14:30:00,
2013-01-06 08:34:00,44.1,43.6,30.23,NNE,22,3.0,9.0,98,0.02,,---,0.90,VWS V14.01,2013-01-06 14:34:00,
2013-01-06 08:39:00,44.2,43.7,30.23,NE,51,6.0,9.0,98,0.02,,---,0.90,VWS V14.01,2013-01-06 14:39:00,
2013-01-06 08:44:00,44.2,43.7,30.24,ENE,58,3.0,9.0,98,0.02,,---,0.90,VWS V14.01,2013-01-06 14:44:00,
2013-01-06 08:45:00,44.2,43.7,30.24,ENE,57,0.0,9.0,98,0.02,,---,0.90,VWS V14.01,2013-01-06 14:45:00,
2013-01-06 08:49:00,44.3,43.8,30.24,NE,55,2.0,7.0,98,0.01,,---,0.90,VWS V14.01,2013-01-06 14:49:00,
2013-01-06 08:54:00,44.3,43.8,30.24,NE,47,4.0,10.0,98,0.01,,---,0.90,VWS V14.01,2013-01-06 14:54:00,
2013-01-06 08:59:00,44.3,43.8,30.24,NNE,30,2.0,10.0,98,0.01,,---,0.90,VWS V14.01,2013-01-06 14:59:00,
2013-01-06 09:00:00,44.3,43.8,30.24,NNE,26,6.0,10.0,98,0.01,,---,0.90,VWS V14.01,2013-01-06 15:00:00,
2013-01-06 09:04:00,44.5,44.0,30.24,NE,34,6.0,11.0,98,0.01,,---,0.90,VWS V14.01,2013-01-06 15:04:00,
2013-01-06 09:09:00,44.6,44.1,30.24,NNE,15,6.0,11.0,98,0.01,,---,0.90,VWS V14.01,2013-01-06 15:09:00,
2013-01-06 09:14:00,44.6,44.1,30.24,NE,37,5.0,12.0,98,0.01,,---,0.90,VWS V14.01,2013-01-06 15:14:00,
2013-01-06 09:15:00,44.6,44.1,30.24,NNE,21,7.0,12.0,98,0.01,,---,0.90,VWS V14.01,2013-01-06 15:15:00,
2013-01-06 09:19:00,44.6,44.1,30.24,NE,41,5.0,9.0,98,0.00,,---,0.90,VWS V14.01,2013-01-06 15:19:00,
2013-01-06 09:24:00,44.6,44.1,30.24,NNE,14,4.0,11.0,98,0.00,,---,0.90,VWS V14.01,2013-01-06 15:24:00,
2013-01-06 09:29:00,44.8,44.3,30.24,NE,50,7.0,11.0,98,0.00,,---,0.90,VWS V14.01,2013-01-06 15:29:00,
2013-01-06 09:30:00,44.8,44.3,30.24,NE,50,7.0,11.0,98,0.00,,---,0.90,VWS V14.01,2013-01-06 15:30:00,
2013-01-06 09:34:00,44.8,44.3,30.24,NNE,24,2.0,9.0,98,0.00,,---,0.90,VWS V14.01,2013-01-06 15:34:00,
2013-01-06 09:39:00,44.8,44.3,30.24,ENE,57,1.0,9.0,98,0.00,,---,0.90,VWS V14.01,2013-01-06 15:39:00,
2013-01-06 09:45:00,44.9,44.4,30.24,ENE,57,7.0,9.0,98,0.00,,---,0.90,VWS V14.01,2013-01-06 15:45:00,
2013-01-06 09:50:00,44.8,44.3,30.24,NE,35,5.0,9.0,98,0.00,,---,0.90,VWS V14.01,2013-01-06 15:50:00,
2013-01-06 09:55:00,44.9,44.4,30.24,North,360,3.0,12.0,98,0.00,,---,0.90,VWS V14.01,2013-01-06 15:55:00,
2013-01-06 10:00:00,44.9,44.4,30.24,NE,46,4.0,4.0,98,0.00,,---,0.90,VWS V14.01,2013-01-06 16:00:00,
2013-01-06 10:05:00,44.9,44.4,30.24,NNE,26,10.0,14.0,98,0.00,,---,0.90,VWS V14.01,2013-01-06 16:05:00,
2013-01-06 10:10:00,44.9,44.4,30.24,NE,39,10.0,14.0,98,0.00,,---,0.90,VWS V14.01,2013-01-06 16:10:00,
2013-01-06 10:15:00,45.1,44.6,30.24,NE,47,5.0,8.0,98,0.00,,---,0.90,VWS V14.01,2013-01-06 16:15:00,
2013-01-06 10:20:00,45.2,44.7,30.24,ENE,71,2.0,10.0,98,0.00,,---,0.90,VWS V14.01,2013-01-06 16:20:00,
2013-01-06 10:25:00,45.2,44.7,30.24,NE,56,5.0,11.0,98,0.00,,---,0.90,VWS V14.01,2013-01-06 16:25:00,
2013-01-06 10:30:00,45.4,44.9,30.23,NE,35,6.0,11.0,98,0.00,,---,0.90,VWS V14.01,2013-01-06 16:30:00,
2013-01-06 10:35:00,45.4,44.9,30.23,North,360,6.0,13.0,98,0.00,,---,0.90,VWS V14.01,2013-01-06 16:35:00,
2013-01-06 10:40:00,45.5,45.0,30.23,NNE,31,10.0,13.0,98,0.00,,---,0.90,VWS V14.01,2013-01-06 16:40:00,
2013-01-06 10:45:00,45.5,45.0,30.23,NE,48,3.0,7.0,98,0.00,,---,0.90,VWS V14.01,2013-01-06 16:45:00,
2013-01-06 10:50:00,45.7,45.2,30.23,NE,36,4.0,12.0,98,0.00,,---,0.90,VWS V14.01,2013-01-06 16:50:00,
2013-01-06 10:55:00,45.7,45.2,30.23,ESE,110,6.0,12.0,98,0.00,,---,0.90,VWS V14.01,2013-01-06 16:55:00,
2013-01-06 11:00:00,45.7,45.2,30.23,ENE,74,6.0,14.0,98,0.00,,---,0.90,VWS V14.01,2013-01-06 17:00:00,
2013-01-06 11:01:00,45.5,45.0,30.23,NE,56,14.0,14.0,98,0.00,,---,0.90,VWS V14.01,2013-01-06 17:01:00,
2013-01-06 11:06:00,45.7,45.2,30.23,NNE,13,7.0,14.0,98,0.00,,---,0.90,VWS V14.01,2013-01-06 17:06:00,
2013-01-06 11:11:00,45.8,45.3,30.23,NNE,29,4.0,14.0,98,0.00,,---,0.90,VWS V14.01,2013-01-06 17:11:00,
2013-01-06 11:15:00,46.0,45.5,30.22,North,5,6.0,14.0,98,0.00,,---,0.90,VWS V14.01,2013-01-06 17:15:00,
2013-01-06 11:16:00,46.0,45.5,30.22,ENE,63,5.0,11.0,98,0.00,,---,0.90,VWS V14.01,2013-01-06 17:16:00,
2013-01-06 11:21:00,46.4,45.9,30.22,NE,36,3.0,11.0,98,0.00,,---,0.90,VWS V14.01,2013-01-06 17:21:00,
2013-01-06 11:26:00,46.7,46.2,30.22,East,92,4.0,11.0,98,0.00,,---,0.90,VWS V14.01,2013-01-06 17:26:00,
2013-01-06 11:30:00,46.8,46.3,30.22,NE,36,6.0,11.0,98,0.00,,---,0.90,VWS V14.01,2013-01-06 17:30:00,
2013-01-06 11:31:00,47.0,46.5,30.22,East,101,5.0,6.0,98,0.00,,---,0.90,VWS V14.01,2013-01-06 17:31:00,
2013-01-06 11:36:00,47.1,46.6,30.22,NNE,28,4.0,10.0,98,0.00,,---,0.90,VWS V14.01,2013-01-06 17:36:00,
2013-01-06 11:41:00,47.3,46.8,30.22,ENE,74,9.0,10.0,98,0.00,,---,0.90,VWS V14.01,2013-01-06 17:41:00,
2013-01-06 11:45:00,47.3,46.8,30.21,NE,50,5.0,10.0,98,0.00,,---,0.90,VWS V14.01,2013-01-06 17:45:00,
2013-01-06 11:46:00,47.1,46.3,30.21,NE,46,5.0,9.0,97,0.00,,---,0.90,VWS V14.01,2013-01-06 17:46:00,
2013-01-06 11:51:00,47.1,46.3,30.21,NE,55,11.0,12.0,97,0.00,,---,0.90,VWS V14.01,2013-01-06 17:51:00,
2013-01-06 11:56:00,47.4,46.9,30.21,NNE,30,4.0,12.0,98,0.00,,---,0.90,VWS V14.01,2013-01-06 17:56:00,
2013-01-06 12:00:00,47.7,46.9,30.20,NE,53,10.0,12.0,97,0.00,,---,0.90,VWS V14.01,2013-01-06 18:00:00,
2013-01-06 12:01:00,47.7,46.9,30.20,NNE,30,7.0,10.0,97,0.00,,---,0.90,VWS V14.01,2013-01-06 18:01:00,
2013-01-06 12:06:00,48.2,47.4,30.20,NE,37,8.0,10.0,97,0.00,,---,0.90,VWS V14.01,2013-01-06 18:06:00,
2013-01-06 12:11:00,48.3,47.5,30.20,North,9,8.0,15.0,97,0.00,,---,0.90,VWS V14.01,2013-01-06 18:11:00,
2013-01-06 12:15:00,48.2,47.1,30.20,NE,46,8.0,15.0,96,0.00,,---,0.90,VWS V14.01,2013-01-06 18:15:00,
2013-01-06 12:16:00,48.0,47.2,30.20,North,5,7.0,12.0,97,0.00,,---,0.90,VWS V14.01,2013-01-06 18:16:00,
2013-01-06 12:21:00,48.0,47.2,30.20,NE,51,12.0,12.0,97,0.00,,---,0.90,VWS V14.01,2013-01-06 18:21:00,
2013-01-06 12:26:00,48.0,46.9,30.20,North,9,6.0,16.0,96,0.00,,---,0.90,VWS V14.01,2013-01-06 18:26:00,
2013-01-06 12:30:00,48.0,46.9,30.19,NE,38,10.0,16.0,96,0.00,,---,0.90,VWS V14.01,2013-01-06 18:30:00,
2013-01-06 12:31:00,48.0,46.9,30.19,NE,45,9.0,15.0,96,0.00,,---,0.90,VWS V14.01,2013-01-06 18:31:00,
2013-01-06 12:36:00,48.5,47.4,30.19,NNE,28,9.0,15.0,96,0.00,,---,0.90,VWS V14.01,2013-01-06 18:36:00,
2013-01-06 12:41:00,48.6,47.5,30.19,NE,39,13.0,15.0,96,0.00,,---,0.90,VWS V14.01,2013-01-06 18:41:00,
2013-01-06 12:45:00,48.6,47.5,30.18,NE,51,3.0,15.0,96,0.00,,---,0.90,VWS V14.01,2013-01-06 18:45:00,
2013-01-06 12:47:00,48.6,47.5,30.18,NNE,30,13.0,14.0,96,0.00,,---,0.90,VWS V14.01,2013-01-06 18:47:00,
2013-01-06 12:52:00,48.8,47.7,30.18,North,360,13.0,16.0,96,0.00,,---,0.90,VWS V14.01,2013-01-06 18:52:00,
2013-01-06 12:57:00,48.6,47.2,30.18,NNE,18,11.0,17.0,95,0.00,,---,0.90,VWS V14.01,2013-01-06 18:57:00,
2013-01-06 13:00:00,48.6,47.2,30.17,NE,36,5.0,17.0,95,0.00,,---,0.90,VWS V14.01,2013-01-06 19:00:00,
2013-01-06 13:02:00,48.8,47.7,30.17,NNW,346,9.0,12.0,96,0.00,,---,0.90,VWS V14.01,2013-01-06 19:02:00,
2013-01-06 13:07:00,48.9,47.5,30.17,NE,51,9.0,15.0,95,0.00,,---,0.90,VWS V14.01,2013-01-06 19:07:00,
2013-01-06 13:12:00,48.9,47.5,30.17,North,9,14.0,15.0,95,0.00,,---,0.90,VWS V14.01,2013-01-06 19:12:00,
2013-01-06 13:15:00,48.9,47.2,30.17,North,5,9.0,17.0,94,0.00,,---,0.90,VWS V14.01,2013-01-06 19:15:00,
2013-01-06 13:17:00,48.9,47.5,30.17,North,9,11.0,17.0,95,0.00,,---,0.90,VWS V14.01,2013-01-06 19:17:00,
2013-01-06 13:22:00,49.2,47.5,30.17,NE,42,13.0,17.0,94,0.00,,---,0.90,VWS V14.01,2013-01-06 19:22:00,
2013-01-06 13:27:00,49.2,47.5,30.17,NNE,13,8.0,17.0,94,0.00,,---,0.90,VWS V14.01,2013-01-06 19:27:00,
2013-01-06 13:30:00,49.4,47.8,30.17,NE,53,8.0,17.0,94,0.00,,---,0.90,VWS V14.01,2013-01-06 19:30:00,
2013-01-06 13:32:00,49.4,47.8,30.17,NE,52,3.0,11.0,94,0.00,,---,0.90,VWS V14.01,2013-01-06 19:32:00,
2013-01-06 13:37:00,49.5,47.8,30.17,North,355,5.0,13.0,94,0.00,,---,0.90,VWS V14.01,2013-01-06 19:37:00,
2013-01-06 13:45:00,49.5,47.6,30.17,NE,36,10.0,13.0,93,0.00,,---,0.90,VWS V14.01,2013-01-06 19:45:00,
2013-01-06 13:47:00,49.5,47.6,30.17,NNE,23,6.0,10.0,93,0.00,,---,0.90,VWS V14.01,2013-01-06 19:47:00,
2013-01-06 13:52:00,49.6,47.7,30.17,ENE,74,5.0,10.0,93,0.00,,---,0.90,VWS V14.01,2013-01-06 19:52:00,
2013-01-06 13:57:00,49.8,47.9,30.17,NE,50,4.0,10.0,93,0.00,,---,0.90,VWS V14.01,2013-01-06 19:57:00,
2013-01-06 14:00:00,49.9,48.2,30.17,NNE,31,3.0,10.0,94,0.00,,---,0.90,VWS V14.01,2013-01-06 20:00:00,
2013-01-06 14:02:00,50.2,48.3,30.17,NNE,22,1.0,5.0,93,0.00,,---,0.90,VWS V14.01,2013-01-06 20:02:00,
2013-01-06 14:07:00,50.1,47.9,30.17,North,355,4.0,12.0,92,0.00,,---,0.90,VWS V14.01,2013-01-06 20:07:00,
2013-01-06 14:11:00,49.9,47.7,30.17,NE,36,10.0,12.0,92,0.00,,---,0.90,VWS V14.01,2013-01-06 20:11:00,
2013-01-06 14:14:00,49.9,47.7,30.17,NNE,24,5.0,12.0,92,0.00,,---,0.90,VWS V14.01,2013-01-06 20:14:00,
2013-01-06 14:15:00,50.1,48.2,30.17,North,360,2.0,12.0,93,0.00,,---,0.90,VWS V14.01,2013-01-06 20:15:00,
2013-01-06 14:19:00,50.1,47.9,30.17,NE,39,8.0,14.0,92,0.00,,---,0.90,VWS V14.01,2013-01-06 20:19:00,
2013-01-06 14:24:00,50.2,48.0,30.17,ENE,71,1.0,14.0,92,0.00,,---,0.90,VWS V14.01,2013-01-06 20:24:00,
2013-01-06 14:29:00,50.1,47.6,30.17,NNE,33,9.0,14.0,91,0.00,,---,0.90,VWS V14.01,2013-01-06 20:29:00,
2013-01-06 14:30:00,50.1,47.6,30.17,NNE,17,6.0,14.0,91,0.00,,---,0.90,VWS V14.01,2013-01-06 20:30:00,
2013-01-06 14:34:00,50.1,47.9,30.17,NE,38,3.0,12.0,92,0.00,,---,0.90,VWS V14.01,2013-01-06 20:34:00,
2013-01-06 14:39:00,50.1,47.6,30.17,NE,40,7.0,12.0,91,0.00,,---,0.90,VWS V14.01,2013-01-06 20:39:00,
2013-01-06 14:44:00,50.4,47.9,30.16,NNE,30,6.0,12.0,91,0.00,,---,0.90,VWS V14.01,2013-01-06 20:44:00,
2013-01-06 14:45:00,50.4,47.9,30.16,North,5,4.0,12.0,91,0.00,,---,0.90,VWS V14.01,2013-01-06 20:45:00,
2013-01-06 14:49:00,50.5,48.0,30.16,NE,55,7.0,9.0,91,0.00,,---,0.90,VWS V14.01,2013-01-06 20:49:00,
2013-01-06 14:54:00,50.2,47.4,30.16,NE,54,5.0,10.0,90,0.00,,---,0.90,VWS V14.01,2013-01-06 20:54:00,
2013-01-06 14:59:00,50.4,47.6,30.16,NNE,13,4.0,11.0,90,0.00,,---,0.90,VWS V14.01,2013-01-06 20:59:00,
2013-01-06 15:00:00,50.2,47.4,30.16,North,9,5.0,11.0,90,0.00,,---,0.90,VWS V14.01,2013-01-06 21:00:00,
2013-01-06 15:01:00,50.2,47.4,30.16,NE,36,5.0,9.0,90,0.00,,---,0.90,VWS V14.01,2013-01-06 21:01:00,
2013-01-06 15:06:00,50.1,47.0,30.16,NNE,25,1.0,10.0,89,0.00,,---,0.90,VWS V14.01,2013-01-06 21:06:00,
2013-01-06 15:11:00,50.7,47.6,30.16,ENE,62,6.0,10.0,89,0.00,,---,0.90,VWS V14.01,2013-01-06 21:11:00,
2013-01-06 15:15:00,50.5,47.4,30.16,NE,38,2.0,10.0,89,0.00,,---,0.90,VWS V14.01,2013-01-06 21:15:00,
2013-01-06 15:16:00,50.5,47.4,30.16,NE,46,3.0,7.0,89,0.00,,---,0.90,VWS V14.01,2013-01-06 21:16:00,
2013-01-06 15:22:00,50.7,47.3,30.16,ENE,69,0.0,9.0,88,0.00,,---,0.90,VWS V14.01,2013-01-06 21:22:00,
2013-01-06 15:27:00,51.0,47.6,30.16,NE,46,2.0,9.0,88,0.00,,---,0.90,VWS V14.01,2013-01-06 21:27:00,
2013-01-06 15:30:00,51.1,47.4,30.17,NE,36,4.0,9.0,87,0.00,,---,0.90,VWS V14.01,2013-01-06 21:30:00,
2013-01-06 15:32:00,51.1,47.4,30.17,NE,35,2.0,5.0,87,0.00,,---,0.90,VWS V14.01,2013-01-06 21:32:00,
2013-01-06 15:37:00,51.1,47.1,30.17,NNE,28,5.0,7.0,86,0.00,,---,0.90,VWS V14.01,2013-01-06 21:37:00,
2013-01-06 15:42:00,51.3,47.0,30.17,NNE,25,6.0,7.0,85,0.00,,---,0.90,VWS V14.01,2013-01-06 21:42:00,
2013-01-06 15:45:00,51.4,47.0,30.17,NNE,30,5.0,9.0,85,0.00,,---,0.90,VWS V14.01,2013-01-06 21:45:00,
2013-01-06 15:47:00,51.6,46.9,30.17,NE,41,3.0,6.0,84,0.00,,---,0.90,VWS V14.01,2013-01-06 21:47:00,
2013-01-06 15:52:00,51.9,46.9,30.17,ENE,72,3.0,7.0,83,0.00,,---,0.90,VWS V14.01,2013-01-06 21:52:00,
2013-01-06 15:57:00,51.9,46.3,30.17,NE,42,4.0,7.0,81,0.00,,---,0.90,VWS V14.01,2013-01-06 21:57:00,
2013-01-06 16:00:00,51.9,46.3,30.17,NE,46,3.0,7.0,81,0.00,,---,0.90,VWS V14.01,2013-01-06 22:00:00,
2013-01-06 16:02:00,52.0,46.4,30.17,NE,39,3.0,6.0,81,0.00,,---,0.90,VWS V14.01,2013-01-06 22:02:00,
2013-01-06 16:07:00,52.0,46.0,30.17,NE,39,3.0,6.0,80,0.00,,---,0.90,VWS V14.01,2013-01-06 22:07:00,
2013-01-06 16:12:00,52.2,46.2,30.17,NNE,33,0.0,6.0,80,0.00,,---,0.90,VWS V14.01,2013-01-06 22:12:00,
2013-01-06 16:15:00,52.3,46.3,30.16,NE,40,3.0,6.0,80,0.00,,---,0.90,VWS V14.01,2013-01-06 22:15:00,
2013-01-06 16:17:00,52.2,46.2,30.16,NE,40,0.0,3.0,80,0.00,,---,0.90,VWS V14.01,2013-01-06 22:17:00,
2013-01-06 16:22:00,52.2,46.2,30.16,NE,34,3.0,5.0,80,0.00,,---,0.90,VWS V14.01,2013-01-06 22:22:00,
2013-01-06 16:28:00,52.2,45.9,30.16,NE,34,0.0,5.0,79,0.00,,---,0.90,VWS V14.01,2013-01-06 22:28:00,
2013-01-06 16:30:00,52.2,45.9,30.16,NE,34,1.0,5.0,79,0.00,,---,0.90,VWS V14.01,2013-01-06 22:30:00,
2013-01-06 16:32:00,52.2,45.9,30.16,NE,34,0.0,1.0,79,0.00,,---,0.90,VWS V14.01,2013-01-06 22:32:00,
2013-01-06 16:37:00,51.6,45.3,30.16,NE,34,0.0,3.0,79,0.00,,---,0.90,VWS V14.01,2013-01-06 22:37:00,
2013-01-06 16:43:00,51.7,45.7,30.16,NE,34,0.0,3.0,80,0.00,,---,0.90,VWS V14.01,2013-01-06 22:43:00,
2013-01-06 16:45:00,51.7,45.7,30.16,NE,34,0.0,3.0,80,0.00,,---,0.90,VWS V14.01,2013-01-06 22:45:00,
2013-01-06 16:48:00,51.6,45.6,30.16,NE,34,0.0,0.0,80,0.00,,---,0.90,VWS V14.01,2013-01-06 22:48:00,
2013-01-06 16:53:00,51.3,45.3,30.16,NE,34,0.0,0.0,80,0.00,,---,0.90,VWS V14.01,2013-01-06 22:53:00,
2013-01-06 16:58:00,51.1,45.5,30.16,NE,34,0.0,0.0,81,0.00,,---,0.90,VWS V14.01,2013-01-06 22:58:00,
2013-01-06 17:00:00,51.0,45.4,30.17,NE,34,0.0,0.0,81,0.00,,---,0.90,VWS V14.01,2013-01-06 23:00:00,
2013-01-06 17:03:00,51.0,45.7,30.17,NE,34,0.0,0.0,82,0.00,,---,0.90,VWS V14.01,2013-01-06 23:03:00,
2013-01-06 17:08:00,50.7,45.7,30.17,NE,34,0.0,0.0,83,0.00,,---,0.90,VWS V14.01,2013-01-06 23:08:00,
2013-01-06 17:13:00,50.1,45.2,30.17,NE,34,0.0,0.0,83,0.00,,---,0.90,VWS V14.01,2013-01-06 23:13:00,
2013-01-06 17:15:00,50.1,45.2,30.17,NE,34,0.0,0.0,83,0.00,,---,0.90,VWS V14.01,2013-01-06 23:15:00,
2013-01-06 17:18:00,49.9,45.3,30.17,NE,34,0.0,0.0,84,0.00,,---,0.90,VWS V14.01,2013-01-06 23:18:00,
2013-01-06 17:23:00,49.8,45.2,30.17,NE,34,0.0,0.0,84,0.00,,---,0.90,VWS V14.01,2013-01-06 23:23:00,
2013-01-06 17:28:00,49.6,45.3,30.17,NE,34,0.0,0.0,85,0.00,,---,0.90,VWS V14.01,2013-01-06 23:28:00,
2013-01-06 17:30:00,49.6,45.3,30.19,NE,34,0.0,0.0,85,0.00,,---,0.90,VWS V14.01,2013-01-06 23:30:00,
2013-01-06 17:33:00,49.4,45.1,30.19,NE,34,0.0,0.0,85,0.00,,---,0.90,VWS V14.01,2013-01-06 23:33:00,
2013-01-06 17:38:00,49.1,44.8,30.19,NE,34,0.0,0.0,85,0.00,,---,0.90,VWS V14.01,2013-01-06 23:38:00,
2013-01-06 17:43:00,48.8,44.8,30.19,NE,34,0.0,0.0,86,0.00,,---,0.90,VWS V14.01,2013-01-06 23:43:00,
2013-01-06 17:45:00,48.6,44.6,30.19,NE,34,0.0,0.0,86,0.00,,---,0.90,VWS V14.01,2013-01-06 23:45:00,
2013-01-06 17:48:00,48.5,44.5,30.19,NE,34,0.0,0.0,86,0.00,,---,0.90,VWS V14.01,2013-01-06 23:48:00,
2013-01-06 17:53:00,48.2,44.5,30.19,NE,34,0.0,0.0,87,0.00,,---,0.90,VWS V14.01,2013-01-06 23:53:00,
2013-01-06 17:58:00,47.9,44.2,30.19,NE,34,1.0,1.0,87,0.00,,---,0.90,VWS V14.01,2013-01-06 23:58:00,
2013-01-06 18:00:00,47.9,44.2,30.19,NE,34,1.0,1.0,87,0.00,,---,0.90,VWS V14.01,2013-01-07 00:00:00,
2013-01-06 18:04:00,47.6,44.2,30.19,NE,34,0.0,2.0,88,0.00,,---,0.90,VWS V14.01,2013-01-07 00:04:00,
2013-01-06 18:09:00,47.1,43.7,30.19,NE,34,0.0,2.0,88,0.00,,---,0.90,VWS V14.01,2013-01-07 00:09:00,
2013-01-06 18:14:00,46.8,43.7,30.20,NE,34,0.0,2.0,89,0.00,,---,0.90,VWS V14.01,2013-01-07 00:14:00,
2013-01-06 18:15:00,46.7,43.6,30.20,NE,34,0.0,2.0,89,0.00,,---,0.90,VWS V14.01,2013-01-07 00:15:00,
2013-01-06 18:19:00,46.5,43.4,30.20,NE,34,0.0,0.0,89,0.00,,---,0.90,VWS V14.01,2013-01-07 00:19:00,
2013-01-06 18:24:00,46.4,43.3,30.20,NE,34,0.0,2.0,89,0.00,,---,0.90,VWS V14.01,2013-01-07 00:24:00,
2013-01-06 18:29:00,46.1,43.0,30.20,NE,34,0.0,3.0,89,0.00,,---,0.90,VWS V14.01,2013-01-07 00:29:00,
2013-01-06 18:30:00,46.1,43.3,30.20,NE,34,2.0,3.0,90,0.00,,---,0.90,VWS V14.01,2013-01-07 00:30:00,
2013-01-06 18:34:00,46.0,43.2,30.20,NE,34,0.0,2.0,90,0.00,,---,0.90,VWS V14.01,2013-01-07 00:34:00,
2013-01-06 18:39:00,45.8,43.0,30.20,NE,34,0.0,2.0,90,0.00,,---,0.90,VWS V14.01,2013-01-07 00:39:00,
2013-01-06 18:44:00,45.7,42.9,30.20,NE,34,0.0,2.0,90,0.00,,---,0.90,VWS V14.01,2013-01-07 00:44:00,
2013-01-06 18:45:00,45.5,42.7,30.20,NE,34,0.0,2.0,90,0.00,,---,0.90,VWS V14.01,2013-01-07 00:45:00,
2013-01-06 18:49:00,45.4,42.9,30.20,NE,34,0.0,0.0,91,0.00,,---,0.90,VWS V14.01,2013-01-07 00:49:00,
2013-01-06 18:54:00,45.2,42.7,30.20,NE,34,2.0,3.0,91,0.00,,---,0.90,VWS V14.01,2013-01-07 00:54:00,
2013-01-06 18:59:00,45.1,42.6,30.21,NE,34,1.0,3.0,91,0.00,,---,0.90,VWS V14.01,2013-01-07 00:59:00,
2013-01-06 19:00:00,45.1,42.6,30.21,NE,34,0.0,3.0,91,0.00,,---,0.90,VWS V14.01,2013-01-07 01:00:00,
2013-01-06 19:04:00,44.9,42.4,30.21,NE,34,1.0,2.0,91,0.00,,---,0.90,VWS V14.01,2013-01-07 01:04:00,
2013-01-06 19:09:00,44.6,42.1,30.21,NE,34,0.0,3.0,91,0.00,,---,0.90,VWS V14.01,2013-01-07 01:09:00,
2013-01-06 19:14:00,44.3,41.8,30.21,NE,34,1.0,3.0,91,0.00,,---,0.90,VWS V14.01,2013-01-07 01:14:00,
2013-01-06 19:15:00,44.3,41.8,30.21,NE,34,1.0,3.0,91,0.00,,---,0.90,VWS V14.01,2013-01-07 01:15:00,
2013-01-06 19:19:00,44.3,42.1,30.21,North,355,2.0,4.0,92,0.00,,---,0.90,VWS V14.01,2013-01-07 01:19:00,
2013-01-06 19:25:00,44.2,42.0,30.21,NNE,28,2.0,4.0,92,0.00,,---,0.90,VWS V14.01,2013-01-07 01:25:00,
2013-01-06 19:30:00,44.1,41.9,30.22,North,360,4.0,4.0,92,0.00,,---,0.90,VWS V14.01,2013-01-07 01:30:00,
2013-01-06 19:35:00,44.1,41.9,30.22,North,360,0.0,4.0,92,0.00,,---,0.90,VWS V14.01,2013-01-07 01:35:00,
2013-01-06 19:40:00,44.3,42.4,30.22,North,5,4.0,8.0,93,0.00,,---,0.90,VWS V14.01,2013-01-07 01:40:00,
2013-01-06 19:45:00,44.5,42.6,30.23,NNE,29,8.0,8.0,93,0.00,,---,0.90,VWS V14.01,2013-01-07 01:45:00,
2013-01-06 19:50:00,44.8,42.6,30.23,NNE,22,5.0,9.0,92,0.00,,---,0.90,VWS V14.01,2013-01-07 01:50:00,
2013-01-06 19:55:00,44.9,42.7,30.23,NNE,19,2.0,9.0,92,0.00,,---,0.90,VWS V14.01,2013-01-07 01:55:00,
2013-01-06 20:00:00,45.1,42.6,30.24,NNE,32,1.0,4.0,91,0.00,,---,0.90,VWS V14.01,2013-01-07 02:00:00,
2013-01-06 20:05:00,45.1,42.3,30.24,NNE,28,2.0,5.0,90,0.00,,---,0.90,VWS V14.01,2013-01-07 02:05:00,
2013-01-06 20:10:00,44.8,42.0,30.24,NNE,16,4.0,5.0,90,0.00,,---,0.90,VWS V14.01,2013-01-07 02:10:00,
2013-01-06 20:15:00,44.6,41.6,30.24,NNE,23,1.0,5.0,89,0.00,,---,0.90,VWS V14.01,2013-01-07 02:15:00,
2013-01-06 20:20:00,44.6,41.6,30.24,NNE,19,5.0,6.0,89,0.00,,---,0.90,VWS V14.01,2013-01-07 02:20:00,
2013-01-06 20:26:00,44.5,41.5,30.24,NNE,23,5.0,7.0,89,0.00,,---,0.90,VWS V14.01,2013-01-07 02:26:00,
2013-01-06 20:30:00,44.3,41.3,30.24,NNE,13,4.0,7.0,89,0.00,,---,0.90,VWS V14.01,2013-01-07 02:30:00,
2013-01-06 20:31:00,44.3,41.3,30.24,NNE,26,3.0,6.0,89,0.00,,---,0.90,VWS V14.01,2013-01-07 02:31:00,
2013-01-06 20:36:00,44.3,41.0,30.24,NNE,16,8.0,8.0,88,0.00,,---,0.90,VWS V14.01,2013-01-07 02:36:00,
2013-01-06 20:41:00,44.3,41.0,30.24,NNE,28,6.0,9.0,88,0.00,,---,0.90,VWS V14.01,2013-01-07 02:41:00,
2013-01-06 20:45:00,44.5,41.2,30.24,NNE,15,5.0,10.0,88,0.00,,---,0.90,VWS V14.01,2013-01-07 02:45:00,
2013-01-06 20:46:00,44.5,40.9,30.24,NNE,33,9.0,10.0,87,0.00,,---,0.90,VWS V14.01,2013-01-07 02:46:00,
2013-01-06 20:51:00,44.5,40.9,30.24,North,11,4.0,10.0,87,0.00,,---,0.90,VWS V14.01,2013-01-07 02:51:00,
2013-01-06 20:56:00,44.3,40.4,30.24,NE,35,5.0,10.0,86,0.00,,---,0.90,VWS V14.01,2013-01-07 02:56:00,
2013-01-06 21:00:00,44.2,40.3,30.23,NNE,16,5.0,10.0,86,0.00,,---,0.90,VWS V14.01,2013-01-07 03:00:00,
2013-01-06 21:01:00,44.2,40.3,30.23,NNE,15,4.0,7.0,86,0.00,,---,0.90,VWS V14.01,2013-01-07 03:01:00,
2013-01-06 21:06:00,44.3,40.4,30.23,NNE,29,3.0,7.0,86,0.00,,---,0.90,VWS V14.01,2013-01-07 03:06:00,
2013-01-06 21:11:00,44.1,40.2,30.23,NNE,28,4.0,8.0,86,0.00,,---,0.90,VWS V14.01,2013-01-07 03:11:00,
2013-01-06 21:15:00,43.9,40.0,30.24,NNE,13,4.0,8.0,86,0.00,,---,0.90,VWS V14.01,2013-01-07 03:15:00,
2013-01-06 21:16:00,43.9,40.0,30.24,NE,36,4.0,5.0,86,0.00,,---,0.90,VWS V14.01,2013-01-07 03:16:00,
2013-01-06 21:22:00,43.8,39.9,30.24,NNE,19,2.0,10.0,86,0.00,,---,0.90,VWS V14.01,2013-01-07 03:22:00,
2013-01-06 21:27:00,43.6,39.7,30.24,NNE,20,1.0,10.0,86,0.00,,---,0.90,VWS V14.01,2013-01-07 03:27:00,
2013-01-06 21:30:00,43.5,39.6,30.25,NNE,20,2.0,10.0,86,0.00,,---,0.90,VWS V14.01,2013-01-07 03:30:00,
2013-01-06 21:32:00,43.5,39.6,30.25,NNE,20,3.0,3.0,86,0.00,,---,0.90,VWS V14.01,2013-01-07 03:32:00,
2013-01-06 21:37:00,43.2,39.6,30.25,NNE,20,1.0,4.0,87,0.00,,---,0.90,VWS V14.01,2013-01-07 03:37:00,
2013-01-06 21:42:00,43.1,39.5,30.25,NNE,26,0.0,4.0,87,0.00,,---,0.90,VWS V14.01,2013-01-07 03:42:00,
2013-01-06 21:45:00,43.1,39.5,30.25,NNE,26,0.0,4.0,87,0.00,,---,0.90,VWS V14.01,2013-01-07 03:45:00,
2013-01-06 21:47:00,42.9,39.3,30.25,NNE,26,0.0,0.0,87,0.00,,---,0.90,VWS V14.01,2013-01-07 03:47:00,
2013-01-06 21:52:00,42.6,39.0,30.25,NNE,26,0.0,3.0,87,0.00,,---,0.90,VWS V14.01,2013-01-07 03:52:00,
2013-01-06 21:57:00,42.5,38.9,30.25,NNE,26,0.0,3.0,87,0.00,,---,0.90,VWS V14.01,2013-01-07 03:57:00,
2013-01-06 22:00:00,42.3,38.7,30.25,NNE,26,0.0,3.0,87,0.00,,---,0.90,VWS V14.01,2013-01-07 04:00:00,
2013-01-06 22:02:00,42.2,38.6,30.25,NNE,26,0.0,1.0,87,0.00,,---,0.90,VWS V14.01,2013-01-07 04:02:00,
2013-01-06 22:07:00,41.8,38.5,30.25,NNE,26,0.0,1.0,88,0.00,,---,0.90,VWS V14.01,2013-01-07 04:07:00,
2013-01-06 22:12:00,41.5,38.2,30.25,NNE,26,0.0,1.0,88,0.00,,---,0.90,VWS V14.01,2013-01-07 04:12:00,
2013-01-06 22:15:00,41.3,38.0,30.25,NNE,26,0.0,1.0,88,0.00,,---,0.90,VWS V14.01,2013-01-07 04:15:00,
2013-01-06 22:17:00,41.1,37.8,30.25,NNE,26,0.0,1.0,88,0.00,,---,0.90,VWS V14.01,2013-01-07 04:17:00,
2013-01-06 22:22:00,40.8,37.8,30.25,NNE,26,0.0,1.0,89,0.00,,---,0.90,VWS V14.01,2013-01-07 04:22:00,
2013-01-06 22:28:00,40.5,37.5,30.25,NNE,26,0.0,2.0,89,0.00,,---,0.90,VWS V14.01,2013-01-07 04:28:00,
2013-01-06 22:30:00,40.3,37.3,30.25,NNE,26,0.0,2.0,89,0.00,,---,0.90,VWS V14.01,2013-01-07 04:30:00,
2013-01-06 22:33:00,40.2,37.2,30.25,NNE,26,0.0,0.0,89,0.00,,---,0.90,VWS V14.01,2013-01-07 04:33:00,
2013-01-06 22:38:00,39.9,36.9,30.25,NNE,26,0.0,1.0,89,0.00,,---,0.90,VWS V14.01,2013-01-07 04:38:00,
2013-01-06 22:43:00,39.6,36.9,30.25,NNE,26,1.0,2.0,90,0.00,,---,0.90,VWS V14.01,2013-01-07 04:43:00,
2013-01-06 22:45:00,39.5,36.8,30.25,NNE,26,2.0,3.0,90,0.00,,---,0.90,VWS V14.01,2013-01-07 04:45:00,
2013-01-06 22:48:00,39.3,36.6,30.25,NNE,26,0.0,3.0,90,0.00,,---,0.90,VWS V14.01,2013-01-07 04:48:00,
2013-01-06 22:53:00,39.1,36.4,30.25,NNE,26,0.0,3.0,90,0.00,,---,0.90,VWS V14.01,2013-01-07 04:53:00,
2013-01-06 22:58:00,39.1,36.7,30.25,NNE,26,0.0,3.0,91,0.00,,---,0.90,VWS V14.01,2013-01-07 04:58:00,
2013-01-06 23:00:00,39.1,36.7,30.25,NNE,26,0.0,0.0,91,0.00,,---,0.90,VWS V14.01,2013-01-07 05:00:00,
2013-01-06 23:01:00,38.9,36.5,30.25,NNE,26,0.0,0.0,91,0.00,,---,0.90,VWS V14.01,2013-01-07 05:01:00,
2013-01-06 23:02:00,38.9,36.5,30.25,NNE,26,0.0,0.0,91,0.00,,---,0.90,VWS V14.01,2013-01-07 05:02:00,
2013-01-06 23:07:00,38.6,36.2,30.25,NNE,26,0.0,0.0,91,0.00,,---,0.90,VWS V14.01,2013-01-07 05:07:00,
2013-01-06 23:12:00,38.5,36.1,30.25,NE,44,2.0,3.0,91,0.00,,---,0.90,VWS V14.01,2013-01-07 05:12:00,
2013-01-06 23:15:00,38.3,35.9,30.25,NE,44,0.0,3.0,91,0.00,,---,0.90,VWS V14.01,2013-01-07 05:15:00,
2013-01-06 23:17:00,38.2,35.8,30.25,NE,42,1.0,2.0,91,0.00,,---,0.90,VWS V14.01,2013-01-07 05:17:00,
2013-01-06 23:22:00,38.2,35.8,30.25,NE,42,0.0,2.0,91,0.00,,---,0.90,VWS V14.01,2013-01-07 05:22:00,
2013-01-06 23:27:00,38.2,36.1,30.25,NE,42,0.0,2.0,92,0.00,,---,0.90,VWS V14.01,2013-01-07 05:27:00,
2013-01-06 23:30:00,38.2,36.1,30.25,NE,42,0.0,2.0,92,0.00,,---,0.90,VWS V14.01,2013-01-07 05:30:00,
2013-01-06 23:33:00,38.2,36.1,30.25,NE,42,0.0,1.0,92,0.00,,---,0.90,VWS V14.01,2013-01-07 05:33:00,
2013-01-06 23:38:00,38.2,36.1,30.25,NE,42,0.0,2.0,92,0.00,,---,0.90,VWS V14.01,2013-01-07 05:38:00,
2013-01-06 23:43:00,37.8,35.7,30.25,NE,42,0.0,2.0,92,0.00,,---,0.90,VWS V14.01,2013-01-07 05:43:00,
2013-01-06 23:45:00,37.8,35.7,30.25,NE,42,0.0,2.0,92,0.00,,---,0.90,VWS V14.01,2013-01-07 05:45:00,
2013-01-06 23:48:00,37.6,35.5,30.25,NE,42,2.0,3.0,92,0.00,,---,0.90,VWS V14.01,2013-01-07 05:48:00,
2013-01-06 23:53:00,37.5,35.4,30.25,NE,42,0.0,3.0,92,0.00,,---,0.90,VWS V14.01,2013-01-07 05:53:00,
2013-01-06 23:58:00,37.5,35.4,30.25,NE,42,0.0,3.0,92,0.00,,---,0.90,VWS V14.01,2013-01-07 05:58:00,